createdAt,value
2019-01-24T00:01:16.999Z,96314.73
2019-01-24T00:03:46.937Z,96320.53
2019-01-24T00:06:17.182Z,96317.06
2019-01-24T00:08:46.907Z,96316.52
2019-01-24T00:11:17.333Z,96318.41
2019-01-24T00:13:48.109Z,96323.30
2019-01-24T00:16:38.345Z,96319.04
2019-01-24T00:19:09.118Z,96323.23
2019-01-24T00:21:39.746Z,96326.06
2019-01-24T00:24:10.087Z,96334.73
2019-01-24T00:29:29.965Z,96343.70
2019-01-24T00:31:59.657Z,96342.83
2019-01-24T00:34:30.095Z,96346.30
2019-01-24T00:37:00.094Z,96350.97
2019-01-24T00:39:30.683Z,96353.06
2019-01-24T00:42:00.793Z,96363.32
2019-01-24T00:44:31.240Z,96356.91
2019-01-24T00:47:01.275Z,96370.75
2019-01-24T00:49:31.722Z,96361.61
2019-01-24T00:52:02.020Z,96370.63
2019-01-24T00:54:32.281Z,96369.70
2019-01-24T00:57:02.617Z,96374.48
2019-01-24T00:59:33.004Z,96375.98
2019-01-24T01:02:02.830Z,96376.42
2019-01-24T01:04:32.852Z,96381.78
2019-01-24T01:07:04.507Z,96384.21
2019-01-24T01:09:34.136Z,96384.14
2019-01-24T01:12:03.596Z,96382.17
2019-01-24T01:14:53.849Z,96383.75
2019-01-24T01:17:24.825Z,96387.16
2019-01-24T01:19:54.838Z,96386.64
2019-01-24T01:22:25.916Z,96395.63
2019-01-24T01:24:56.166Z,96393.94
2019-01-24T01:27:26.134Z,96398.60
2019-01-24T01:29:56.021Z,96399.76
2019-01-24T01:32:26.414Z,96403.89
2019-01-24T01:34:56.033Z,96407.95
2019-01-24T01:37:24.910Z,96413.98
2019-01-24T01:39:54.812Z,96415.73
2019-01-24T01:42:45.529Z,96420.75
2019-01-24T01:45:18.122Z,96413.36
2019-01-24T01:47:48.673Z,96426.34
2019-01-24T01:50:24.001Z,96422.51
2019-01-24T01:52:54.994Z,96424.12
2019-01-24T01:55:24.959Z,96432.23
2019-01-24T01:57:55.900Z,96433.36
2019-01-24T02:00:26.607Z,96428.88
2019-01-24T02:02:57.251Z,96431.99
2019-01-24T02:05:28.198Z,96436.50
2019-01-24T02:07:58.985Z,96439.45
2019-01-24T02:10:28.963Z,96444.02
2019-01-24T02:13:00.059Z,96444.56
2019-01-24T02:15:28.780Z,96449.94
2019-01-24T02:17:57.457Z,96447.88
2019-01-24T02:20:27.579Z,96452.28
2019-01-24T02:22:57.837Z,96455.73
2019-01-24T02:25:27.709Z,96457.14
2019-01-24T02:27:57.845Z,96464.86
2019-01-24T02:30:29.143Z,96460.25
2019-01-24T02:32:59.482Z,96457.83
2019-01-24T02:35:29.552Z,96468.67
2019-01-24T02:37:59.870Z,96468.70
2019-01-24T02:40:30.080Z,96470.70
2019-01-24T02:43:00.355Z,96469.61
2019-01-24T02:45:30.863Z,96476.49
2019-01-24T02:48:01.052Z,96475.08
2019-01-24T02:50:31.136Z,96478.81
2019-01-24T02:53:01.277Z,96478.28
2019-01-24T02:55:32.462Z,96476.02
2019-01-24T02:58:02.695Z,96479.17
2019-01-24T03:00:32.843Z,96480.09
2019-01-24T03:03:03.196Z,96486.02
2019-01-24T03:05:33.764Z,96486.05
2019-01-24T03:08:04.167Z,96489.23
2019-01-24T03:10:34.655Z,96490.88
2019-01-24T03:13:04.856Z,96491.42
2019-01-24T03:15:35.403Z,96494.78
2019-01-24T03:18:05.503Z,96502.80
2019-01-24T03:20:35.935Z,96495.84
2019-01-24T03:23:06.065Z,96500.34
2019-01-24T03:25:36.453Z,96496.03
2019-01-24T03:28:07.849Z,96493.12
2019-01-24T03:30:37.984Z,96494.79
2019-01-24T03:33:08.509Z,96506.72
2019-01-24T03:35:38.524Z,96506.10
2019-01-24T03:38:10.086Z,96504.85
2019-01-24T03:40:40.895Z,96509.33
2019-01-24T03:43:11.068Z,96517.38
2019-01-24T03:45:41.679Z,96518.47
2019-01-24T03:48:11.705Z,96517.90
2019-01-24T03:50:41.862Z,96520.77
2019-01-24T03:53:11.702Z,96516.32
2019-01-24T03:55:44.603Z,96523.88
2019-01-24T03:58:15.251Z,96518.44
2019-01-24T04:00:45.010Z,96517.92
2019-01-24T04:03:15.177Z,96517.33
2019-01-24T04:05:45.113Z,96531.02
2019-01-24T04:08:16.205Z,96524.40
2019-01-24T04:10:46.895Z,96528.88
2019-01-24T04:13:17.115Z,96533.05
2019-01-24T04:15:48.231Z,96534.34
2019-01-24T04:18:18.466Z,96536.03
2019-01-24T04:20:48.208Z,96536.17
2019-01-24T04:23:18.602Z,96541.77
2019-01-24T04:25:51.682Z,96536.83
2019-01-24T04:28:22.818Z,96538.70
2019-01-24T04:30:52.925Z,96539.05
2019-01-24T04:33:23.459Z,96543.34
2019-01-24T04:35:53.572Z,96538.95
2019-01-24T04:38:23.936Z,96543.84
2019-01-24T04:40:54.288Z,96548.73
2019-01-24T04:43:24.198Z,96545.67
2019-01-24T04:45:55.060Z,96558.51
2019-01-24T04:48:25.168Z,96563.68
2019-01-24T04:50:54.966Z,96561.61
2019-01-24T04:53:24.833Z,96561.92
2019-01-24T04:55:54.907Z,96563.70
2019-01-24T04:58:25.038Z,96574.65
2019-01-24T05:00:54.624Z,96583.62
2019-01-24T05:03:22.953Z,96579.96
2019-01-24T05:05:53.346Z,96588.83
2019-01-24T05:08:24.608Z,96589.97
2019-01-24T05:10:54.196Z,96595.95
2019-01-24T05:13:23.590Z,96596.92
2019-01-24T05:15:52.445Z,96605.27
2019-01-24T05:18:22.524Z,96602.64
2019-01-24T05:20:52.597Z,96601.39
2019-01-24T05:23:22.419Z,96602.63
2019-01-24T05:25:52.706Z,96612.67
2019-01-24T05:28:22.647Z,96609.27
2019-01-24T05:30:52.847Z,96610.87
2019-01-24T05:33:22.854Z,96615.23
2019-01-24T05:35:53.097Z,96622.09
2019-01-24T05:38:23.228Z,96627.86
2019-01-24T05:40:54.916Z,96626.54
2019-01-24T05:43:25.044Z,96625.93
2019-01-24T05:45:55.619Z,96627.48
2019-01-24T05:48:25.793Z,96639.53
2019-01-24T05:50:55.777Z,96640.94
2019-01-24T05:53:25.983Z,96645.43
2019-01-24T05:55:56.131Z,96643.64
2019-01-24T05:58:25.865Z,96648.68
2019-01-24T06:00:55.963Z,96647.55
2019-01-24T06:03:26.157Z,96655.66
2019-01-24T06:05:56.300Z,96659.05
2019-01-24T06:08:26.677Z,96660.31
2019-01-24T06:10:56.513Z,96665.14
2019-01-24T06:13:27.079Z,96660.90
2019-01-24T06:15:57.348Z,96667.59
2019-01-24T06:18:26.929Z,96672.47
2019-01-24T06:20:56.949Z,96679.47
2019-01-24T06:23:27.032Z,96679.16
2019-01-24T06:25:57.077Z,96679.14
2019-01-24T06:28:27.457Z,96677.25
2019-01-24T06:30:59.001Z,96682.62
2019-01-24T06:33:29.475Z,96687.17
2019-01-24T06:35:59.507Z,96686.02
2019-01-24T06:38:29.616Z,96684.13
2019-01-24T06:40:59.613Z,96684.56
2019-01-24T06:43:29.485Z,96689.36
2019-01-24T06:45:59.318Z,96691.52
2019-01-24T06:48:29.943Z,96703.63
2019-01-24T06:51:02.666Z,96703.52
2019-01-24T06:53:33.254Z,96705.19
2019-01-24T06:56:01.563Z,96709.20
2019-01-24T06:58:31.864Z,96709.06
2019-01-24T07:01:02.148Z,96682.84
2019-01-24T07:03:32.387Z,96717.75
2019-01-24T07:06:02.466Z,96724.55
2019-01-24T07:08:31.809Z,96720.62
2019-01-24T07:11:01.992Z,96720.44
2019-01-24T07:13:52.729Z,96725.65
2019-01-24T07:16:22.970Z,96731.88
2019-01-24T07:19:13.301Z,96734.98
2019-01-24T07:21:42.063Z,96690.03
2019-01-24T07:24:32.666Z,96746.91
2019-01-24T07:27:02.542Z,96752.67
2019-01-24T07:29:33.103Z,96752.81
2019-01-24T07:32:03.330Z,96754.44
2019-01-24T07:34:32.922Z,96753.05
2019-01-24T07:37:05.855Z,96761.98
2019-01-24T07:39:36.102Z,96770.04
2019-01-24T07:42:06.424Z,96775.30
2019-01-24T07:44:36.113Z,96770.49
2019-01-24T07:47:06.675Z,96768.48
2019-01-24T07:49:39.921Z,96773.55
2019-01-24T07:52:10.082Z,96768.58
2019-01-24T07:54:40.319Z,96771.30
2019-01-24T07:57:10.546Z,96771.89
2019-01-24T07:59:40.595Z,96786.44
2019-01-24T08:02:12.408Z,96777.34
2019-01-24T08:04:42.878Z,96784.21
2019-01-24T08:07:11.944Z,96794.77
2019-01-24T08:09:42.006Z,96808.55
2019-01-24T08:12:45.692Z,96814.49
2019-01-24T08:15:17.522Z,96820.22
2019-01-24T08:17:47.378Z,96822.01
2019-01-24T08:20:18.831Z,96822.06
2019-01-24T08:22:48.802Z,96813.09
2019-01-24T08:25:18.453Z,96818.70
2019-01-24T08:27:48.613Z,96825.56
2019-01-24T08:30:21.880Z,96832.17
2019-01-24T08:32:50.881Z,96832.80
2019-01-24T08:35:20.340Z,96828.77
2019-01-24T08:37:53.218Z,96831.98
2019-01-24T08:40:39.601Z,96839.14
2019-01-24T08:43:09.014Z,96836.31
2019-01-24T08:45:38.865Z,96835.27
2019-01-24T08:48:10.305Z,96833.77
2019-01-24T08:50:41.091Z,96832.86
2019-01-24T08:53:09.985Z,96834.64
2019-01-24T08:55:40.226Z,96834.93
2019-01-24T08:58:10.161Z,96837.80
2019-01-24T09:00:40.992Z,96836.52
2019-01-24T09:03:12.543Z,96841.72
2019-01-24T09:05:42.498Z,96842.66
2019-01-24T09:08:13.305Z,96837.03
2019-01-24T09:10:43.315Z,96842.66
2019-01-24T09:13:13.308Z,96840.27
2019-01-24T09:15:42.859Z,96840.70
2019-01-24T09:18:12.723Z,96843.90
2019-01-24T09:20:44.453Z,96845.31
2019-01-24T09:23:14.567Z,96845.11
2019-01-24T09:25:45.057Z,96846.67
2019-01-24T09:28:16.189Z,96853.48
2019-01-24T09:30:45.793Z,96852.17
2019-01-24T09:33:15.822Z,96856.36
2019-01-24T09:35:46.048Z,96856.92
2019-01-24T09:38:14.982Z,96866.86
2019-01-24T09:40:46.203Z,96866.38
2019-01-24T09:43:18.792Z,96868.96
2019-01-24T09:45:49.035Z,96874.36
2019-01-24T09:48:23.155Z,96873.63
2019-01-24T09:50:53.002Z,96881.84
2019-01-24T09:53:23.429Z,96879.81
2019-01-24T09:55:53.370Z,96887.89
2019-01-24T09:58:23.560Z,96889.08
2019-01-24T10:01:13.982Z,96888.10
2019-01-24T10:03:44.322Z,96895.25
2019-01-24T10:06:14.725Z,96894.70
2019-01-24T10:08:44.887Z,96893.16
2019-01-24T10:11:15.084Z,96895.06
2019-01-24T10:13:45.177Z,96896.23
2019-01-24T10:16:15.523Z,96903.90
2019-01-24T10:18:43.848Z,96907.25
2019-01-24T10:21:13.721Z,96913.25
2019-01-24T10:23:44.173Z,96912.51
2019-01-24T10:26:14.694Z,96908.23
2019-01-24T10:28:44.720Z,96912.64
2019-01-24T10:31:15.568Z,96914.05
2019-01-24T10:33:45.638Z,96917.47
2019-01-24T10:36:15.587Z,96919.03
2019-01-24T10:38:46.049Z,96914.42
2019-01-24T10:41:16.012Z,96916.38
2019-01-24T10:43:46.402Z,96910.90
2019-01-24T10:46:17.901Z,96907.37
2019-01-24T10:48:48.921Z,96916.63
2019-01-24T10:51:19.055Z,96918.93
2019-01-24T10:53:49.506Z,96917.04
2019-01-24T10:56:19.450Z,96917.90
2019-01-24T10:58:50.037Z,96923.72
2019-01-24T11:01:40.760Z,96927.97
2019-01-24T11:04:11.193Z,96932.78
2019-01-24T11:06:40.965Z,96929.59
2019-01-24T11:09:11.391Z,96927.77
2019-01-24T11:11:41.460Z,96930.97
2019-01-24T11:14:11.835Z,96940.05
2019-01-24T11:16:41.805Z,96937.27
2019-01-24T11:19:12.357Z,96935.73
2019-01-24T11:21:42.520Z,96938.36
2019-01-24T11:24:12.598Z,96938.47
2019-01-24T11:26:43.862Z,96931.84
2019-01-24T11:29:14.054Z,96927.92
2019-01-24T11:31:44.403Z,96930.58
2019-01-24T11:34:16.002Z,96928.72
2019-01-24T11:36:45.972Z,96897.96
2019-01-24T11:39:16.436Z,96939.80
2019-01-24T11:41:46.347Z,96936.13
2019-01-24T11:44:16.671Z,96931.06
2019-01-24T11:46:46.679Z,96927.23
2019-01-24T11:49:15.002Z,96922.47
2019-01-24T11:51:43.469Z,96927.29
2019-01-24T11:54:13.722Z,96925.48
2019-01-24T11:56:43.951Z,96929.73
2019-01-24T11:59:14.564Z,96927.95
2019-01-24T12:01:44.789Z,96931.38
2019-01-24T12:04:13.833Z,96935.63
2019-01-24T12:06:44.036Z,96931.22
2019-01-24T12:09:13.843Z,96930.37
2019-01-24T12:11:43.899Z,96927.20
2019-01-24T12:14:13.846Z,96927.03
2019-01-24T12:16:44.358Z,96929.17
2019-01-24T12:19:13.133Z,96941.30
2019-01-24T12:21:42.849Z,96931.42
2019-01-24T12:24:12.347Z,96931.39
2019-01-24T12:26:42.974Z,96932.22
2019-01-24T12:29:11.525Z,96932.57
2019-01-24T12:31:40.100Z,96930.32
2019-01-24T12:34:09.829Z,96926.12
2019-01-24T12:37:01.478Z,96929.16
2019-01-24T12:39:31.150Z,96933.42
2019-01-24T12:42:01.577Z,96939.59
2019-01-24T12:44:31.470Z,96939.67
2019-01-24T12:47:01.822Z,96937.73
2019-01-24T12:49:31.256Z,96941.67
2019-01-24T12:52:07.311Z,96935.30
2019-01-24T12:54:36.939Z,96939.55
2019-01-24T12:57:09.658Z,96946.01
2019-01-24T12:59:39.325Z,96940.50
2019-01-24T13:02:29.883Z,96942.11
2019-01-24T13:04:59.739Z,96942.63
2019-01-24T13:07:29.898Z,96947.63
2019-01-24T13:10:00.408Z,96944.59
2019-01-24T13:12:32.441Z,96947.81
2019-01-24T13:15:02.255Z,96950.35
2019-01-24T13:17:32.227Z,96948.73
2019-01-24T13:20:02.631Z,96944.92
2019-01-24T13:22:32.010Z,96944.34
2019-01-24T13:25:01.995Z,96947.91
2019-01-24T13:27:32.847Z,96946.20
2019-01-24T13:30:03.313Z,96952.85
2019-01-24T13:32:35.307Z,96947.52
2019-01-24T13:35:05.639Z,96947.41
2019-01-24T13:37:35.341Z,96945.11
2019-01-24T13:40:05.491Z,96949.08
2019-01-24T13:42:37.276Z,96957.20
2019-01-24T13:45:10.373Z,96958.47
2019-01-24T13:47:39.199Z,96953.61
2019-01-24T13:50:11.862Z,96962.64
2019-01-24T13:52:41.201Z,96968.39
2019-01-24T13:55:11.273Z,96969.49
2019-01-24T13:57:41.374Z,96976.75
2019-01-24T14:00:24.361Z,96978.21
2019-01-24T14:03:15.866Z,96979.20
2019-01-24T14:05:46.091Z,96973.95
2019-01-24T14:08:15.137Z,96975.91
2019-01-24T14:10:45.410Z,96979.39
2019-01-24T14:13:14.009Z,96986.55
2019-01-24T14:15:44.126Z,96989.98
2019-01-24T14:18:13.638Z,96992.86
2019-01-24T14:20:43.699Z,96993.31
2019-01-24T14:23:14.768Z,96990.94
2019-01-24T14:25:44.653Z,96992.26
2019-01-24T14:28:14.760Z,96998.73
2019-01-24T14:31:04.494Z,97003.52
2019-01-24T14:33:34.862Z,97009.70
2019-01-24T14:36:05.211Z,97011.95
2019-01-24T14:38:35.310Z,97019.72
2019-01-24T14:41:05.555Z,97027.17
2019-01-24T14:43:35.513Z,97031.98
2019-01-24T14:46:04.499Z,97037.27
2019-01-24T14:48:35.584Z,97038.97
2019-01-24T14:51:05.619Z,97039.64
2019-01-24T14:53:34.465Z,97041.67
2019-01-24T14:56:04.719Z,97047.36
2019-01-24T14:58:33.761Z,97052.88
2019-01-24T15:01:05.608Z,97057.19
2019-01-24T15:03:35.926Z,97048.55
2019-01-24T15:06:05.560Z,97060.31
2019-01-24T15:08:35.669Z,97052.08
2019-01-24T15:11:05.211Z,97062.58
2019-01-24T15:13:35.569Z,97067.23
2019-01-24T15:16:26.079Z,97060.84
2019-01-24T15:18:56.572Z,97061.29
2019-01-24T15:21:27.647Z,97069.52
2019-01-24T15:23:58.012Z,97067.52
2019-01-24T15:26:27.495Z,97063.00
2019-01-24T15:28:57.825Z,97065.67
2019-01-24T15:31:27.446Z,97067.39
2019-01-24T15:33:58.485Z,97070.03
2019-01-24T15:36:28.593Z,97066.91
2019-01-24T15:38:57.449Z,97070.03
2019-01-24T15:41:27.729Z,97076.95
2019-01-24T15:43:57.894Z,97068.29
2019-01-24T15:46:27.871Z,97071.92
2019-01-24T15:48:58.265Z,97073.31
2019-01-24T15:51:28.130Z,97071.09
2019-01-24T15:53:57.907Z,97063.36
2019-01-24T15:56:29.104Z,97077.12
2019-01-24T15:58:59.226Z,97072.16
2019-01-24T16:01:30.582Z,97083.19
2019-01-24T16:04:00.331Z,97083.20
2019-01-24T16:06:30.387Z,97094.74
2019-01-24T16:09:01.504Z,97097.02
2019-01-24T16:11:30.827Z,97098.16
2019-01-24T16:14:01.584Z,97098.68
2019-01-24T16:16:31.682Z,97097.35
2019-01-24T16:19:01.249Z,97107.02
2019-01-24T16:21:33.253Z,97117.16
2019-01-24T16:24:04.331Z,97112.87
2019-01-24T16:26:37.469Z,97120.11
2019-01-24T16:29:07.604Z,97126.94
2019-01-24T16:31:38.028Z,97121.27
2019-01-24T16:34:08.060Z,97123.28
2019-01-24T16:36:36.499Z,97133.94
2019-01-24T16:39:08.628Z,97141.23
2019-01-24T16:41:38.485Z,97138.00
2019-01-24T16:44:08.512Z,97139.60
2019-01-24T16:46:38.709Z,97145.05
2019-01-24T16:49:08.808Z,97139.03
2019-01-24T16:51:38.224Z,97149.33
2019-01-24T16:54:08.079Z,97152.11
2019-01-24T16:56:38.166Z,97148.84
2019-01-24T16:59:08.383Z,97150.90
2019-01-24T17:01:38.632Z,97161.02
2019-01-24T17:04:10.849Z,97162.30
2019-01-24T17:06:41.146Z,97162.74
2019-01-24T17:09:12.310Z,97168.66
2019-01-24T17:11:42.321Z,97168.89
2019-01-24T17:14:12.242Z,97167.36
2019-01-24T17:16:42.531Z,97173.35
2019-01-24T17:19:12.804Z,97171.88
2019-01-24T17:21:43.196Z,97178.98
2019-01-24T17:24:13.434Z,97181.03
2019-01-24T17:26:43.677Z,97189.84
2019-01-24T17:29:13.720Z,97191.20
2019-01-24T17:31:43.342Z,97190.86
2019-01-24T17:34:13.342Z,97193.31
2019-01-24T17:36:45.659Z,97195.46
2019-01-24T17:39:17.174Z,97205.02
2019-01-24T17:41:46.040Z,97203.77
2019-01-24T17:44:15.745Z,97213.64
2019-01-24T17:46:51.520Z,97213.54
2019-01-24T17:49:41.794Z,97219.61
2019-01-24T17:52:10.630Z,97222.78
2019-01-24T17:54:42.161Z,97222.76
2019-01-24T17:57:11.776Z,97228.03
2019-01-24T17:59:41.590Z,97234.08
2019-01-24T18:02:11.322Z,97237.05
2019-01-24T18:04:41.496Z,97235.58
2019-01-24T18:07:11.249Z,97239.88
2019-01-24T18:09:42.224Z,97236.72
2019-01-24T18:12:14.980Z,97244.24
2019-01-24T18:14:45.792Z,97248.72
2019-01-24T18:17:16.208Z,97249.45
2019-01-24T18:19:45.646Z,97253.78
2019-01-24T18:22:15.850Z,97253.77
2019-01-24T18:24:44.906Z,97257.44
2019-01-24T18:27:15.788Z,97258.75
2019-01-24T18:29:44.576Z,97253.18
2019-01-24T18:32:14.635Z,97262.28
2019-01-24T18:34:43.229Z,97263.61
2019-01-24T18:37:13.605Z,97257.43
2019-01-24T18:39:43.016Z,97263.84
2019-01-24T18:42:13.176Z,97267.95
2019-01-24T18:44:43.124Z,97266.59
2019-01-24T18:47:13.003Z,97261.58
2019-01-24T18:49:42.654Z,97264.50
2019-01-24T18:52:13.921Z,97261.58
2019-01-24T18:54:44.149Z,97270.64
2019-01-24T18:57:14.469Z,97272.16
2019-01-24T18:59:44.383Z,97272.98
2019-01-24T19:02:14.004Z,97275.59
2019-01-24T19:04:43.654Z,97282.88
2019-01-24T19:07:14.252Z,97281.61
2019-01-24T19:09:44.530Z,97283.98
2019-01-24T19:12:14.835Z,97282.43
2019-01-24T19:14:44.677Z,97288.06
2019-01-24T19:17:13.558Z,97294.72
2019-01-24T19:19:42.617Z,97289.84
2019-01-24T19:22:11.244Z,97292.19
2019-01-24T19:24:39.766Z,97296.26
2019-01-24T19:27:09.236Z,97294.81
2019-01-24T19:29:38.948Z,97299.67
2019-01-24T19:32:08.091Z,97296.52
2019-01-24T19:34:38.127Z,97305.95
2019-01-24T19:37:06.533Z,97303.92
2019-01-24T19:39:36.791Z,97306.05
2019-01-24T19:42:06.230Z,97308.39
2019-01-24T19:44:35.104Z,97309.38
2019-01-24T19:47:05.427Z,97225.34
2019-01-24T19:49:35.419Z,97317.45
2019-01-24T19:52:04.569Z,97312.84
2019-01-24T19:54:34.551Z,97314.03
2019-01-24T19:57:03.194Z,97317.92
2019-01-24T19:59:32.526Z,97283.42
2019-01-24T20:02:01.482Z,97321.78
2019-01-24T20:04:30.138Z,97321.48
2019-01-24T20:07:00.032Z,97321.48
2019-01-24T20:09:28.861Z,97322.60
2019-01-24T20:12:03.186Z,97324.09
2019-01-24T20:14:34.450Z,97332.30
2019-01-24T20:17:04.489Z,97332.53
2019-01-24T20:19:34.190Z,97325.55
2019-01-24T20:22:02.680Z,97333.63
2019-01-24T20:24:31.897Z,97336.98
2019-01-24T20:27:00.868Z,97338.14
2019-01-24T20:29:29.650Z,97343.58
2019-01-24T20:31:58.134Z,97344.03
2019-01-24T20:34:26.989Z,97352.91
2019-01-24T20:36:56.031Z,97351.57
2019-01-24T20:39:25.782Z,97347.05
2019-01-24T20:41:54.858Z,97357.52
2019-01-24T20:44:24.682Z,97367.07
2019-01-24T20:46:54.976Z,97364.08
2019-01-24T20:49:24.118Z,97368.17
2019-01-24T20:51:54.007Z,97368.95
2019-01-24T20:54:24.392Z,97378.28
2019-01-24T20:56:54.393Z,97378.59
2019-01-24T20:59:25.639Z,97376.09
2019-01-24T21:01:55.904Z,97379.22
2019-01-24T21:04:27.159Z,97381.61
2019-01-24T21:06:57.104Z,97375.45
2019-01-24T21:09:27.459Z,97334.61
2019-01-24T21:12:00.832Z,97381.70
2019-01-24T21:14:29.974Z,97385.91
2019-01-24T21:16:59.963Z,97383.75
2019-01-24T21:19:29.412Z,97391.63
2019-01-24T21:21:59.489Z,97388.66
2019-01-24T21:24:29.413Z,97390.09
2019-01-24T21:26:59.389Z,97393.97
2019-01-24T21:29:29.386Z,97392.32
2019-01-24T21:31:59.165Z,97396.46
2019-01-24T21:34:29.166Z,97397.30
2019-01-24T21:37:00.660Z,97400.94
2019-01-24T21:39:30.002Z,97399.98
2019-01-24T21:42:04.732Z,97398.98
2019-01-24T21:44:34.903Z,97400.27
2019-01-24T21:47:06.110Z,97395.20
2019-01-24T21:49:36.339Z,97396.09
2019-01-24T21:52:05.716Z,97395.63
2019-01-24T21:54:35.736Z,97397.59
2019-01-24T21:57:06.223Z,97399.02
2019-01-24T21:59:37.052Z,97405.04
2019-01-24T22:02:07.114Z,97400.64
2019-01-24T22:04:37.626Z,97396.24
2019-01-24T22:07:07.427Z,97409.66
2019-01-24T22:09:38.297Z,97410.93
2019-01-24T22:12:07.722Z,97408.20
2019-01-24T22:14:38.165Z,97409.48
2019-01-24T22:17:07.899Z,97402.72
2019-01-24T22:19:37.688Z,97410.70
2019-01-24T22:22:07.682Z,97363.23
2019-01-24T22:24:37.739Z,97412.30
2019-01-24T22:27:07.495Z,97413.62
2019-01-24T22:29:38.136Z,97411.45
2019-01-24T22:32:08.117Z,97406.75
2019-01-24T22:34:40.823Z,97415.50
2019-01-24T22:37:10.946Z,97418.34
2019-01-24T22:39:43.036Z,97412.91
2019-01-24T22:42:14.554Z,97415.28
2019-01-24T22:44:44.999Z,97413.73
2019-01-24T22:47:15.192Z,97417.45
2019-01-24T22:49:46.297Z,97415.86
2019-01-24T22:52:16.400Z,97414.39
2019-01-24T22:54:48.479Z,97410.61
2019-01-24T22:57:18.871Z,97412.92
2019-01-24T22:59:47.287Z,97407.82
2019-01-24T23:02:18.616Z,97414.34
2019-01-24T23:04:48.582Z,97411.84
2019-01-24T23:07:18.927Z,97409.26
2019-01-24T23:09:50.433Z,97213.14
2019-01-24T23:12:18.893Z,97409.44
2019-01-24T23:14:48.666Z,97408.56
2019-01-24T23:17:18.527Z,97407.79
2019-01-24T23:19:48.107Z,97407.94
2019-01-24T23:22:18.469Z,97413.17
2019-01-24T23:24:48.418Z,97407.94
2019-01-24T23:27:18.303Z,97413.47
2019-01-24T23:29:50.647Z,97406.87
2019-01-24T23:32:21.056Z,97410.31
2019-01-24T23:34:52.025Z,97414.39
2019-01-24T23:37:23.398Z,97418.86
2019-01-24T23:39:54.610Z,97418.94
2019-01-24T23:42:24.348Z,97420.72
2019-01-24T23:44:56.683Z,97413.84
2019-01-24T23:47:28.080Z,97424.94
2019-01-24T23:49:56.760Z,97424.10
2019-01-24T23:52:25.669Z,97424.69
2019-01-24T23:54:55.887Z,97423.73
2019-01-24T23:57:26.067Z,97428.17
2019-01-24T23:59:56.414Z,97417.31
